Ruby Corner, New York
Current Conditions -  °F | °C
As of 6:13 AM on Friday 24 Oct 2014 (Local Time) from KGTB Reporting Station
Overcast Overcast  
Wind Chill: 45°   Ceiling: 1800
Heat Index: 45°   Visibility: 10mi
Dew Point: 43°   Wind: 0mph
Humidity: 93%   Direction: NA
Pressure: 29.93"   Gusts: NA
Location:  44.435°N, 75.6656°W
Report Text: KGTB 241013Z AUTO 00000KT 10SM BKN018 OVC070 07/06 A2993 RMK AO2 CIG 018V070 BKN V SCT
Loading
Personal Weather Stations






























Interactive Weather Map
Tropical Storm Tracking
New forecast layout! Learn more

10-Day Weather Forecast

Advertisements
Track Severe Weather on mobile